createdAt,value
2019-05-29T00:00:10.268Z,10.28
2019-05-29T00:02:38.954Z,10.78
2019-05-29T00:05:08.024Z,11.07
2019-05-29T00:07:36.525Z,9.48
2019-05-29T00:10:08.791Z,9.65
2019-05-29T00:12:37.113Z,10.10
2019-05-29T00:15:06.186Z,10.78
2019-05-29T00:17:34.939Z,12.25
2019-05-29T00:20:04.221Z,12.93
2019-05-29T00:22:34.201Z,15.85
2019-05-29T00:25:02.666Z,15.48
2019-05-29T00:27:31.109Z,17.25
2019-05-29T00:29:59.553Z,15.68
2019-05-29T00:32:28.034Z,10.75
2019-05-29T00:34:56.481Z,10.43
2019-05-29T00:37:24.997Z,8.90
2019-05-29T00:39:53.489Z,5.37
2019-05-29T00:42:22.007Z,5.35
2019-05-29T00:44:50.521Z,5.62
2019-05-29T00:47:18.997Z,4.62
2019-05-29T00:49:47.781Z,5.80
2019-05-29T00:52:16.641Z,7.30
2019-05-29T00:54:45.352Z,6.35
2019-05-29T00:57:15.228Z,6.55
2019-05-29T00:59:43.884Z,7.28
2019-05-29T01:02:13.599Z,5.58
2019-05-29T01:04:42.340Z,3.62
2019-05-29T01:07:12.195Z,5.65
2019-05-29T01:09:40.995Z,7.03
2019-05-29T01:12:10.732Z,12.35
2019-05-29T01:14:49.684Z,16.87
2019-05-29T01:17:09.724Z,18.15
2019-05-29T01:19:38.444Z,13.57
2019-05-29T01:22:06.894Z,17.13
2019-05-29T01:24:35.372Z,15.05
2019-05-29T01:27:03.816Z,6.03
2019-05-29T01:29:39.702Z,6.70
2019-05-29T01:32:08.148Z,4.08
2019-05-29T01:34:36.590Z,3.12
2019-05-29T01:37:05.136Z,4.65
2019-05-29T01:39:33.647Z,4.60
2019-05-29T01:42:02.094Z,3.30
2019-05-29T01:44:30.563Z,3.83
2019-05-29T01:46:59.002Z,2.00
2019-05-29T01:49:28.032Z,1.87
2019-05-29T01:51:56.694Z,3.02
2019-05-29T01:54:25.138Z,2.85
2019-05-29T01:56:53.575Z,2.00
2019-05-29T01:59:22.045Z,2.60
2019-05-29T02:01:50.480Z,2.52
2019-05-29T02:04:19.853Z,4.03
2019-05-29T02:06:48.796Z,2.87
2019-05-29T02:09:17.988Z,2.92
2019-05-29T02:11:46.553Z,4.87
2019-05-29T02:14:16.317Z,3.45
2019-05-29T02:16:44.953Z,2.98
2019-05-29T02:19:13.393Z,3.33
2019-05-29T02:21:41.859Z,3.67
2019-05-29T02:24:10.300Z,4.03
2019-05-29T02:26:38.736Z,4.70
2019-05-29T02:29:07.224Z,3.25
2019-05-29T02:31:35.674Z,3.77
2019-05-29T02:34:07.335Z,3.67
2019-05-29T02:36:34.517Z,4.33
2019-05-29T02:39:03.369Z,4.62
2019-05-29T02:41:32.354Z,3.42
2019-05-29T02:44:00.829Z,4.28
2019-05-29T02:46:30.148Z,3.42
2019-05-29T02:48:58.784Z,2.83
2019-05-29T02:51:28.402Z,2.85
2019-05-29T02:53:57.424Z,2.67
2019-05-29T02:56:27.025Z,2.98
2019-05-29T02:58:56.014Z,3.08
2019-05-29T03:01:25.567Z,2.67
2019-05-29T03:06:22.381Z,3.08
2019-05-29T03:08:52.942Z,3.65
2019-05-29T03:11:22.874Z,3.62
2019-05-29T03:13:51.817Z,3.52
2019-05-29T03:16:20.262Z,4.10
2019-05-29T03:18:48.702Z,3.58
2019-05-29T03:21:17.174Z,2.22
2019-05-29T03:23:45.691Z,2.80
2019-05-29T03:26:14.198Z,2.83
2019-05-29T03:28:42.665Z,2.12
2019-05-29T03:31:11.106Z,2.15
2019-05-29T03:33:48.362Z,2.72
2019-05-29T03:36:09.775Z,4.35
2019-05-29T03:38:38.570Z,3.35
2019-05-29T03:41:07.176Z,5.37
2019-05-29T03:43:36.225Z,4.45
2019-05-29T03:46:05.117Z,4.33
2019-05-29T03:48:34.451Z,4.35
2019-05-29T03:51:03.120Z,3.87
2019-05-29T03:53:32.047Z,3.42
2019-05-29T03:56:01.716Z,4.40
2019-05-29T03:58:30.992Z,8.05
2019-05-29T04:01:00.024Z,7.92
2019-05-29T04:03:28.959Z,6.00
2019-05-29T04:05:57.610Z,6.37
2019-05-29T04:08:27.399Z,7.58
2019-05-29T04:10:56.905Z,6.85
2019-05-29T04:13:27.319Z,6.83
2019-05-29T04:15:57.802Z,8.95
2019-05-29T04:18:27.603Z,9.03
2019-05-29T04:20:56.985Z,8.58
2019-05-29T04:23:29.945Z,8.75
2019-05-29T04:26:00.151Z,8.55
2019-05-29T04:28:30.209Z,9.75
2019-05-29T04:30:58.906Z,8.28
2019-05-29T04:33:28.173Z,9.48
2019-05-29T04:35:56.802Z,10.18
2019-05-29T04:38:25.246Z,9.83
2019-05-29T04:40:53.800Z,9.78
2019-05-29T04:43:22.242Z,9.25
2019-05-29T04:45:50.682Z,12.03
2019-05-29T04:48:19.161Z,12.37
2019-05-29T04:50:47.675Z,8.83
2019-05-29T04:53:16.115Z,9.58
2019-05-29T04:55:44.590Z,12.15
2019-05-29T04:58:13.029Z,9.58
2019-05-29T05:00:56.035Z,11.08
2019-05-29T05:03:11.672Z,13.20
2019-05-29T05:05:40.122Z,11.20
2019-05-29T05:08:08.639Z,14.18
2019-05-29T05:10:40.877Z,13.98
2019-05-29T05:13:09.557Z,12.15
2019-05-29T05:15:38.439Z,13.05
2019-05-29T05:18:07.565Z,14.93
2019-05-29T05:20:36.393Z,11.93
2019-05-29T05:23:05.436Z,14.10
2019-05-29T05:25:34.396Z,16.50
2019-05-29T05:28:02.917Z,13.90
2019-05-29T05:30:32.367Z,16.77
2019-05-29T05:33:01.001Z,13.68
2019-05-29T05:35:30.636Z,14.68
2019-05-29T05:37:59.273Z,15.48
2019-05-29T05:40:27.844Z,13.08
2019-05-29T05:42:56.441Z,13.20
2019-05-29T05:45:24.964Z,18.25
2019-05-29T05:47:57.310Z,19.15
2019-05-29T05:50:24.134Z,14.07
2019-05-29T05:52:52.744Z,16.85
2019-05-29T05:55:21.493Z,14.67
2019-05-29T05:57:49.932Z,11.45
2019-05-29T06:00:21.451Z,13.70
2019-05-29T06:02:52.186Z,11.05
2019-05-29T06:05:20.286Z,14.60
2019-05-29T06:07:48.789Z,11.53
2019-05-29T06:10:17.599Z,13.62
2019-05-29T06:12:46.053Z,13.30
2019-05-29T06:15:15.201Z,11.05
2019-05-29T06:17:57.331Z,15.23
2019-05-29T06:20:13.901Z,12.40
2019-05-29T06:22:43.662Z,14.28
2019-05-29T06:25:12.479Z,17.00
2019-05-29T06:27:41.413Z,13.23
2019-05-29T06:30:10.649Z,11.57
2019-05-29T06:32:39.471Z,11.75
2019-05-29T06:35:08.288Z,19.00
2019-05-29T06:37:37.569Z,19.00
2019-05-29T06:40:07.848Z,15.43
2019-05-29T06:42:37.704Z,14.03
2019-05-29T06:45:08.657Z,15.18
2019-05-29T06:47:38.625Z,14.75
2019-05-29T06:50:08.013Z,16.07
2019-05-29T06:52:37.964Z,14.15
2019-05-29T06:55:07.005Z,12.88
2019-05-29T06:57:36.033Z,13.58
2019-05-29T07:00:59.532Z,14.05
2019-05-29T07:03:30.399Z,14.23
2019-05-29T07:06:00.000Z,11.48
2019-05-29T07:10:58.046Z,10.53
2019-05-29T07:13:26.527Z,11.30
2019-05-29T07:15:55.006Z,13.72
2019-05-29T07:18:24.701Z,13.72
2019-05-29T07:20:53.145Z,16.62
2019-05-29T07:23:21.657Z,12.25
2019-05-29T07:25:50.179Z,13.20
2019-05-29T07:28:18.693Z,12.45
2019-05-29T07:30:53.538Z,13.20
2019-05-29T07:33:17.502Z,11.90
2019-05-29T07:35:46.149Z,12.40
2019-05-29T07:38:14.758Z,9.68
2019-05-29T07:40:45.098Z,13.38
2019-05-29T07:43:13.369Z,12.23
2019-05-29T07:45:42.215Z,10.32
2019-05-29T07:48:10.801Z,14.58
2019-05-29T07:50:40.086Z,9.78
2019-05-29T07:53:08.785Z,11.33
2019-05-29T07:55:38.314Z,12.55
2019-05-29T07:58:07.043Z,13.90
2019-05-29T08:00:48.196Z,11.35
2019-05-29T08:03:05.805Z,11.63
2019-05-29T08:06:07.847Z,10.38
2019-05-29T08:08:36.356Z,13.45
2019-05-29T08:11:04.869Z,13.68
2019-05-29T08:13:33.341Z,10.03
2019-05-29T08:16:03.293Z,12.55
2019-05-29T08:18:31.926Z,10.35
2019-05-29T08:21:02.678Z,10.15
2019-05-29T08:23:31.120Z,10.70
2019-05-29T08:25:59.642Z,10.80
2019-05-29T08:28:28.298Z,9.33
2019-05-29T08:30:56.804Z,13.83
2019-05-29T08:33:25.278Z,11.78
2019-05-29T08:35:59.883Z,10.08
2019-05-29T08:38:23.927Z,11.00
2019-05-29T08:40:52.363Z,12.13
2019-05-29T08:43:20.838Z,11.25
2019-05-29T08:45:49.719Z,12.47
2019-05-29T08:48:18.385Z,12.60
2019-05-29T08:50:47.785Z,10.45
2019-05-29T08:55:44.303Z,11.03
2019-05-29T08:58:12.860Z,10.00
2019-05-29T09:00:46.468Z,10.98
2019-05-29T09:03:11.485Z,13.32
2019-05-29T09:05:39.959Z,12.58
2019-05-29T09:08:08.404Z,12.47
2019-05-29T09:10:55.190Z,12.28
2019-05-29T09:13:23.627Z,13.08
2019-05-29T09:15:52.146Z,11.63
2019-05-29T09:18:21.656Z,13.48
2019-05-29T09:21:02.571Z,15.48
2019-05-29T09:23:20.977Z,11.78
2019-05-29T09:25:49.592Z,11.43
2019-05-29T09:31:02.482Z,11.57
2019-05-29T09:33:31.560Z,13.23
2019-05-29T09:36:00.407Z,8.43
2019-05-29T09:38:28.916Z,11.90
2019-05-29T09:40:57.429Z,14.85
2019-05-29T09:43:30.322Z,14.85
2019-05-29T09:45:56.098Z,12.50
2019-05-29T09:48:27.453Z,12.30
2019-05-29T09:50:54.714Z,13.25
2019-05-29T09:53:23.775Z,10.38
2019-05-29T09:55:53.728Z,12.07
2019-05-29T09:58:22.533Z,13.13
2019-05-29T10:01:09.939Z,10.20
2019-05-29T10:03:21.180Z,11.83
2019-05-29T10:05:49.625Z,11.45
2019-05-29T10:08:18.103Z,9.08
2019-05-29T10:10:46.594Z,9.85
2019-05-29T10:13:15.106Z,10.65
2019-05-29T10:15:43.739Z,9.25
2019-05-29T10:18:30.506Z,11.85
2019-05-29T10:20:42.503Z,10.98
2019-05-29T10:23:10.977Z,13.08
2019-05-29T10:25:39.822Z,12.18
2019-05-29T10:28:08.282Z,11.40
2019-05-29T10:30:36.755Z,11.03
2019-05-29T10:33:05.264Z,10.82
2019-05-29T10:35:33.721Z,11.25
2019-05-29T10:38:02.212Z,10.55
2019-05-29T10:40:30.794Z,9.50
2019-05-29T10:42:59.241Z,12.47
2019-05-29T10:45:27.746Z,9.03
2019-05-29T10:47:56.258Z,9.33
2019-05-29T10:50:24.702Z,11.57
2019-05-29T10:52:54.255Z,11.65
2019-05-29T10:55:24.071Z,10.45
2019-05-29T11:00:21.983Z,8.73
2019-05-29T11:02:53.106Z,10.47
2019-05-29T11:05:20.813Z,10.82
2019-05-29T11:07:49.700Z,11.20
2019-05-29T11:10:18.554Z,14.20
2019-05-29T11:12:48.312Z,8.73
2019-05-29T11:15:21.662Z,14.65
2019-05-29T11:17:49.105Z,11.93
2019-05-29T11:20:19.372Z,14.43
2019-05-29T11:22:47.861Z,12.18
2019-05-29T11:25:23.396Z,13.93
2019-05-29T11:27:48.378Z,13.08
2019-05-29T11:30:17.270Z,12.55
2019-05-29T11:32:47.734Z,10.60
2019-05-29T11:35:17.022Z,12.13
2019-05-29T11:40:14.097Z,12.05
2019-05-29T11:42:43.601Z,12.35
2019-05-29T11:45:14.732Z,12.07
2019-05-29T11:47:43.182Z,13.00
2019-05-29T11:50:19.335Z,12.20
2019-05-29T11:52:43.680Z,12.35
2019-05-29T11:55:12.755Z,12.33
2019-05-29T11:57:41.330Z,9.43
2019-05-29T12:00:19.613Z,11.33
2019-05-29T12:02:43.102Z,12.20
2019-05-29T12:05:12.384Z,11.30
2019-05-29T12:07:40.866Z,11.10
2019-05-29T12:10:09.935Z,8.38
2019-05-29T12:12:38.716Z,12.37
2019-05-29T12:15:14.438Z,12.05
2019-05-29T12:17:38.410Z,11.45
2019-05-29T12:20:26.491Z,9.05
2019-05-29T12:22:38.208Z,10.28
2019-05-29T12:25:07.746Z,13.05
2019-05-29T12:27:36.204Z,12.05
2019-05-29T12:30:11.268Z,10.82
2019-05-29T12:32:39.917Z,9.43
2019-05-29T12:35:09.329Z,9.83
2019-05-29T12:37:40.179Z,10.88
2019-05-29T12:40:09.142Z,9.08
2019-05-29T12:42:37.657Z,10.72
2019-05-29T12:45:12.117Z,12.05
2019-05-29T12:47:40.647Z,13.58
2019-05-29T12:50:11.162Z,10.85
2019-05-29T12:52:39.796Z,13.03
2019-05-29T12:55:08.873Z,7.57
2019-05-29T12:57:37.390Z,7.58
2019-05-29T13:00:14.817Z,8.30
2019-05-29T13:02:43.430Z,13.65
2019-05-29T13:05:20.155Z,10.63
2019-05-29T13:07:44.198Z,11.45
2019-05-29T13:10:29.447Z,10.58
2019-05-29T13:12:44.182Z,9.90
2019-05-29T13:15:14.788Z,11.20
2019-05-29T13:17:43.388Z,10.18
2019-05-29T13:20:20.955Z,9.93
2019-05-29T13:22:43.355Z,12.53
2019-05-29T13:25:13.490Z,8.58
2019-05-29T13:27:42.178Z,9.05
2019-05-29T13:30:12.690Z,10.33
2019-05-29T13:32:41.288Z,8.85
2019-05-29T13:35:10.649Z,9.50
2019-05-29T13:37:39.156Z,6.90
2019-05-29T13:40:08.991Z,9.08
2019-05-29T13:42:37.605Z,8.80
2019-05-29T13:45:16.782Z,7.47
2019-05-29T13:47:37.497Z,8.40
2019-05-29T13:50:12.320Z,9.60
2019-05-29T13:52:40.027Z,11.45
2019-05-29T13:55:09.305Z,7.30
2019-05-29T13:57:39.974Z,10.10
2019-05-29T14:00:30.570Z,10.18
2019-05-29T14:02:40.697Z,9.78
2019-05-29T14:05:10.168Z,10.68
2019-05-29T14:07:38.789Z,9.25
2019-05-29T14:10:07.885Z,6.43
2019-05-29T14:12:38.877Z,7.45
2019-05-29T14:20:06.744Z,7.37
2019-05-29T14:22:35.268Z,8.20
2019-05-29T14:25:05.892Z,10.13
2019-05-29T14:27:34.393Z,10.20
2019-05-29T14:30:05.666Z,9.48
2019-05-29T14:32:34.124Z,7.37
2019-05-29T14:35:09.150Z,5.45
2019-05-29T14:37:37.738Z,6.00
2019-05-29T14:40:07.921Z,7.65
2019-05-29T14:42:36.517Z,8.08
2019-05-29T14:45:10.126Z,10.20
2019-05-29T14:47:38.951Z,5.45
2019-05-29T14:50:08.768Z,6.37
2019-05-29T14:52:37.688Z,7.55
2019-05-29T14:55:09.369Z,8.18
2019-05-29T14:57:38.005Z,9.63
2019-05-29T15:00:18.865Z,8.78
2019-05-29T15:02:37.959Z,5.97
2019-05-29T15:05:09.615Z,7.87
2019-05-29T15:07:38.387Z,9.23
2019-05-29T15:10:19.701Z,7.37
2019-05-29T15:12:39.360Z,8.40
2019-05-29T15:15:13.148Z,7.05
2019-05-29T15:17:41.263Z,7.37
2019-05-29T15:20:12.632Z,5.53
2019-05-29T15:22:41.953Z,7.87
2019-05-29T15:25:18.413Z,4.65
2019-05-29T15:27:41.066Z,5.78
2019-05-29T15:30:11.828Z,7.70
2019-05-29T15:32:41.010Z,8.83
2019-05-29T15:35:14.347Z,6.95
2019-05-29T15:37:40.710Z,6.42
2019-05-29T15:40:10.907Z,9.00
2019-05-29T15:42:39.556Z,6.33
2019-05-29T15:45:09.834Z,7.15
2019-05-29T15:47:38.630Z,6.87
2019-05-29T15:50:11.440Z,5.05
2019-05-29T15:52:42.906Z,4.92
2019-05-29T15:55:24.838Z,10.05
2019-05-29T15:57:42.584Z,10.08
2019-05-29T16:00:13.894Z,6.00
2019-05-29T16:02:50.870Z,6.08
2019-05-29T16:05:19.410Z,4.53
2019-05-29T16:07:57.051Z,6.78
2019-05-29T16:10:23.178Z,6.67
2019-05-29T16:12:51.647Z,9.35
2019-05-29T16:15:20.816Z,8.70
2019-05-29T16:17:49.317Z,8.60
2019-05-29T16:20:18.694Z,11.10
2019-05-29T16:22:47.327Z,10.10
2019-05-29T16:25:16.968Z,10.10
2019-05-29T16:27:45.702Z,10.63
2019-05-29T16:30:17.939Z,10.15
2019-05-29T16:32:46.460Z,10.30
2019-05-29T16:35:15.282Z,6.75
2019-05-29T16:37:43.736Z,9.38
2019-05-29T16:40:15.931Z,9.40
2019-05-29T16:42:44.878Z,10.72
2019-05-29T16:45:14.274Z,7.40
2019-05-29T16:50:12.820Z,7.12
2019-05-29T16:52:41.592Z,7.90
2019-05-29T16:55:10.595Z,7.47
2019-05-29T16:57:39.135Z,8.68
2019-05-29T17:00:09.427Z,7.42
2019-05-29T17:02:38.677Z,5.95
2019-05-29T17:05:07.792Z,8.95
2019-05-29T17:07:36.230Z,11.03
2019-05-29T17:10:06.862Z,12.33
2019-05-29T17:12:35.336Z,8.68
2019-05-29T17:15:05.981Z,9.30
2019-05-29T17:17:34.494Z,6.95
2019-05-29T17:20:04.541Z,8.95
2019-05-29T17:22:33.059Z,7.87
2019-05-29T17:25:01.499Z,6.78
2019-05-29T17:27:30.058Z,9.35
2019-05-29T17:29:58.499Z,17.60
2019-05-29T17:32:26.937Z,14.28
2019-05-29T17:34:55.485Z,14.03
2019-05-29T17:37:25.098Z,10.03
2019-05-29T17:39:53.824Z,10.32
2019-05-29T17:42:22.622Z,11.88
2019-05-29T17:44:51.260Z,8.70
2019-05-29T17:47:19.751Z,7.55
2019-05-29T17:49:48.268Z,11.22
2019-05-29T17:52:17.679Z,10.40
